Time;durP1;ratioP1;P1;durP2;ratioP2;P2;SDS_P1;SDS_P2;PMS_P1;PMS_P2;Temp;Humidity;BMP_temperature;BMP_pressure;BME280_temperature;BME280_humidity;BME280_pressure;Samples;Min_cycle;Max_cycle;Signal;HPM_P1;HPM_P2
2023/04/07 00:02:00;;;;;;;12.88;10.23;;;;;;;;;;5077438;28;20089;-71
2023/04/07 00:04:26;;;;;;;11.65;10.05;;;;;;;;;;5052482;28;20435;-71
2023/04/07 00:06:52;;;;;;;12.27;10.07;;;;;;;;;;5069970;28;20398;-71
2023/04/07 00:09:19;;;;;;;15.07;12.18;;;;;;;;;;5063558;28;20056;-71
2023/04/07 00:11:47;;;;;;;15.55;12.88;;;;;;;;;;5084833;28;20147;-71
2023/04/07 00:14:13;;;;;;;14.20;11.23;;;;;;;;;;5058861;28;20052;-71
2023/04/07 00:16:40;;;;;;;11.23;9.43;;;;;;;;;;5085793;28;20070;-71
2023/04/07 00:19:06;;;;;;;;;;;;;;;;;;5081737;28;20056;-71
2023/04/07 00:21:32;;;;;;;13.70;11.27;;;;;;;;;;5072677;28;19984;-71
2023/04/07 00:23:58;;;;;;;13.40;11.80;;;;;;;;;;5057397;28;20120;-71
2023/04/07 00:26:30;;;;;;;13.88;11.20;;;;;;;;;;5078994;28;20036;-71
2023/04/07 00:28:56;;;;;;;10.35;8.85;;;;;;;;;;5079037;28;20044;-71
2023/04/07 00:31:22;;;;;;;10.95;9.00;;;;;;;;;;5079404;28;20568;-71
2023/04/07 00:33:48;;;;;;;11.45;10.05;;;;;;;;;;5077553;28;20048;-71
2023/04/07 00:36:14;;;;;;;12.18;9.73;;;;;;;;;;5076525;28;20571;-71
2023/04/07 00:38:40;;;;;;;;;;;;;;;;;;5056256;28;20048;-72
2023/04/07 00:41:06;;;;;;;13.43;11.13;;;;;;;;;;5081244;28;20351;-71
2023/04/07 00:43:32;;;;;;;13.60;11.80;;;;;;;;;;5085434;28;20036;-71
2023/04/07 00:45:59;;;;;;;14.02;11.48;;;;;;;;;;5075733;28;20048;-71
2023/04/07 00:48:25;;;;;;;14.80;11.77;;;;;;;;;;5068961;28;20707;-71
2023/04/07 00:50:51;;;;;;;11.27;9.63;;;;;;;;;;5066246;28;20442;-71
2023/04/07 00:53:19;;;;;;;13.25;10.93;;;;;;;;;;5078471;28;20528;-71
2023/04/07 00:55:45;;;;;;;12.60;10.23;;;;;;;;;;5081737;28;20566;-71
2023/04/07 00:58:11;;;;;;;11.13;9.13;;;;;;;;;;5083232;28;20076;-71
2023/04/07 01:00:57;;;;;;;10.73;8.98;;;;;;;;;;5083141;28;20043;-71
2023/04/07 01:03:29;;;;;;;12.25;10.45;;;;;;;;;;5059765;28;20074;-71
2023/04/07 01:05:57;;;;;;;11.68;9.93;;;;;;;;;;5081966;28;20028;-71
2023/04/07 01:08:32;;;;;;;14.43;12.20;;;;;;;;;;5083301;28;20048;-71
2023/04/07 01:11:08;;;;;;;13.75;11.30;;;;;;;;;;5077928;28;20159;-71
2023/04/07 01:13:36;;;;;;;13.20;11.13;;;;;;;;;;5078609;28;20774;-70
2023/04/07 01:16:04;;;;;;;11.45;9.60;;;;;;;;;;5082810;28;20039;-70
2023/04/07 01:18:34;;;;;;;13.27;10.60;;;;;;;;;;5081846;28;20043;-71
2023/04/07 01:21:03;;;;;;;13.93;11.75;;;;;;;;;;5068418;28;20044;-71
2023/04/07 01:23:49;;;;;;;13.63;11.35;;;;;;;;;;5076559;28;20049;-70
2023/04/07 01:26:20;;;;;;;13.98;11.27;;;;;;;;;;5070389;28;20510;-71
2023/04/07 01:28:54;;;;;;;12.13;9.65;;;;;;;;;;5074357;28;20074;-71
2023/04/07 01:31:20;;;;;;;10.02;8.80;;;;;;;;;;5083924;28;20044;-71
2023/04/07 01:33:47;;;;;;;11.50;8.07;;;;;;;;;;5075209;28;20041;-71
2023/04/07 01:36:14;;;;;;;10.18;8.30;;;;;;;;;;5083986;28;20453;-71
2023/04/07 01:38:40;;;;;;;11.75;9.80;;;;;;;;;;5085294;28;20507;-71
2023/04/07 01:41:06;;;;;;;;;;;;;;;;;;5089705;28;20403;-72
2023/04/07 01:43:32;;;;;;;13.07;10.88;;;;;;;;;;5079596;28;20330;-72
2023/04/07 01:45:59;;;;;;;11.43;9.77;;;;;;;;;;5068464;28;20372;-72
2023/04/07 01:48:25;;;;;;;11.85;9.68;;;;;;;;;;5086995;28;20035;-72
2023/04/07 01:50:52;;;;;;;9.82;8.32;;;;;;;;;;5077529;28;20432;-72
2023/04/07 01:53:22;;;;;;;9.43;8.02;;;;;;;;;;5074964;28;20054;-73
2023/04/07 01:55:48;;;;;;;8.00;6.88;;;;;;;;;;5081685;28;20177;-73
2023/04/07 01:58:15;;;;;;;9.07;7.82;;;;;;;;;;5075814;28;20062;-74
2023/04/07 02:00:41;;;;;;;10.05;8.63;;;;;;;;;;5074550;28;20044;-72
2023/04/07 02:03:10;;;;;;;9.65;8.02;;;;;;;;;;5064186;28;20055;-72
2023/04/07 02:05:38;;;;;;;10.48;8.10;;;;;;;;;;5077478;28;20980;-73
2023/04/07 02:08:05;;;;;;;8.88;7.93;;;;;;;;;;5081549;28;20044;-71
2023/04/07 02:10:35;;;;;;;11.38;8.98;;;;;;;;;;5074860;28;20131;-72
2023/04/07 02:13:03;;;;;;;13.07;10.45;;;;;;;;;;5075114;28;20128;-70
2023/04/07 02:15:31;;;;;;;11.30;9.70;;;;;;;;;;5078854;28;20074;-71
2023/04/07 02:17:57;;;;;;;11.57;9.65;;;;;;;;;;5071286;28;20072;-71
2023/04/07 02:20:24;;;;;;;10.48;8.75;;;;;;;;;;5069500;28;20044;-71
2023/04/07 02:22:50;;;;;;;9.93;8.10;;;;;;;;;;5083229;28;20096;-71
2023/04/07 02:25:22;;;;;;;12.50;10.77;;;;;;;;;;5066893;28;20502;-71
2023/04/07 02:27:48;;;;;;;11.25;9.75;;;;;;;;;;5084634;28;20048;-71
2023/04/07 02:30:14;;;;;;;11.98;10.23;;;;;;;;;;5061711;28;20436;-71
2023/04/07 02:32:40;;;;;;;11.15;9.98;;;;;;;;;;5084429;28;20051;-71
2023/04/07 02:35:07;;;;;;;11.00;9.00;;;;;;;;;;5083494;28;20452;-71
2023/04/07 02:37:33;;;;;;;11.52;9.50;;;;;;;;;;5057765;28;20079;-71
2023/04/07 02:39:59;;;;;;;11.23;9.95;;;;;;;;;;5080594;28;20411;-71
2023/04/07 02:42:25;;;;;;;;;;;;;;;;;;5073577;28;20132;-71
2023/04/07 02:44:51;;;;;;;11.50;9.73;;;;;;;;;;5078521;28;20027;-72
2023/04/07 02:47:17;;;;;;;11.32;9.43;;;;;;;;;;5082384;28;20140;-71
2023/04/07 02:49:43;;;;;;;12.18;10.75;;;;;;;;;;5065636;28;20508;-72
2023/04/07 02:52:09;;;;;;;10.70;9.60;;;;;;;;;;5079143;28;20051;-72
2023/04/07 02:54:36;;;;;;;12.23;10.25;;;;;;;;;;5076363;28;20047;-71
2023/04/07 02:57:02;;;;;;;13.15;10.73;;;;;;;;;;5075460;28;20502;-71
2023/04/07 02:59:28;;;;;;;11.55;9.85;;;;;;;;;;5066499;28;20469;-71
2023/04/07 03:01:54;;;;;;;11.80;10.43;;;;;;;;;;5085235;28;20390;-71
2023/04/07 03:04:21;;;;;;;12.95;11.23;;;;;;;;;;5089516;28;20430;-71
2023/04/07 03:06:47;;;;;;;11.68;10.48;;;;;;;;;;5084671;28;20090;-71
2023/04/07 03:09:14;;;;;;;13.63;12.07;;;;;;;;;;5073062;28;20036;-71
2023/04/07 03:11:41;;;;;;;14.40;12.25;;;;;;;;;;5086904;28;20403;-70
2023/04/07 03:14:07;;;;;;;;;;;;;;;;;;5086978;28;20098;-71
2023/04/07 03:16:33;;;;;;;15.73;13.25;;;;;;;;;;5074165;28;19924;-70
2023/04/07 03:18:59;;;;;;;14.60;13.00;;;;;;;;;;5089695;28;20051;-71
2023/04/07 03:21:27;;;;;;;12.10;10.32;;;;;;;;;;5063217;28;20044;-70
2023/04/07 03:23:54;;;;;;;13.63;12.05;;;;;;;;;;5057975;28;20040;-70
2023/04/07 03:26:20;;;;;;;;;;;;;;;;;;5071064;28;20044;-71
2023/04/07 03:28:46;;;;;;;14.63;12.60;;;;;;;;;;5078742;28;20406;-71
2023/04/07 03:31:12;;;;;;;12.88;11.40;;;;;;;;;;5075783;28;20062;-70
2023/04/07 03:33:38;;;;;;;14.85;12.93;;;;;;;;;;5071649;28;20048;-70
2023/04/07 03:36:05;;;;;;;15.57;13.80;;;;;;;;;;5068727;28;20076;-70
2023/04/07 03:38:31;;;;;;;;;;;;;;;;;;5079678;28;20048;-71
2023/04/07 03:40:57;;;;;;;14.43;11.70;;;;;;;;;;5075538;28;19935;-71
2023/04/07 03:43:23;;;;;;;12.43;10.38;;;;;;;;;;5068732;28;20469;-71
2023/04/07 03:45:49;;;;;;;13.35;11.30;;;;;;;;;;5059148;28;20519;-71
2023/04/07 03:48:15;;;;;;;18.13;13.93;;;;;;;;;;5076691;28;20047;-70
2023/04/07 03:50:41;;;;;;;;;;;;;;;;;;5058813;28;20151;-71
2023/04/07 03:53:08;;;;;;;17.20;13.82;;;;;;;;;;5076585;28;20533;-71
2023/04/07 03:55:34;;;;;;;14.57;12.88;;;;;;;;;;5073517;28;20052;-70
2023/04/07 03:58:00;;;;;;;12.48;10.93;;;;;;;;;;5076379;28;20110;-71
2023/04/07 04:00:26;;;;;;;12.35;10.52;;;;;;;;;;5056669;28;20142;-71
2023/04/07 04:02:53;;;;;;;13.45;11.68;;;;;;;;;;5067429;28;20088;-71
2023/04/07 04:05:19;;;;;;;13.68;11.52;;;;;;;;;;5057939;28;20048;-71
2023/04/07 04:07:45;;;;;;;13.90;12.02;;;;;;;;;;5077226;28;20383;-71
2023/04/07 04:10:11;;;;;;;14.20;11.55;;;;;;;;;;5073292;28;20040;-71
2023/04/07 04:12:37;;;;;;;14.52;12.05;;;;;;;;;;5073559;28;20055;-71
2023/04/07 04:15:03;;;;;;;15.30;13.25;;;;;;;;;;5081989;28;20035;-71
2023/04/07 04:17:29;;;;;;;14.82;12.70;;;;;;;;;;5071377;28;20094;-71
2023/04/07 04:19:55;;;;;;;14.73;12.20;;;;;;;;;;5060996;28;20110;-71
2023/04/07 04:22:21;;;;;;;15.60;12.43;;;;;;;;;;5055818;28;20488;-71
2023/04/07 04:24:48;;;;;;;16.67;13.73;;;;;;;;;;5069482;28;20341;-71
2023/04/07 04:27:14;;;;;;;16.85;13.30;;;;;;;;;;5072473;28;20044;-71
2023/04/07 04:29:40;;;;;;;16.52;12.95;;;;;;;;;;5077148;28;20055;-71
2023/04/07 04:32:06;;;;;;;14.93;12.15;;;;;;;;;;5073331;28;20193;-71
2023/04/07 04:34:32;;;;;;;13.57;11.88;;;;;;;;;;5080456;28;20047;-71
2023/04/07 04:36:58;;;;;;;15.23;12.50;;;;;;;;;;5073121;28;20043;-70
2023/04/07 04:39:24;;;;;;;13.98;11.57;;;;;;;;;;5068032;28;20036;-71
2023/04/07 04:41:50;;;;;;;13.80;11.38;;;;;;;;;;5082014;28;20039;-71
2023/04/07 04:44:16;;;;;;;14.07;11.77;;;;;;;;;;5076207;28;20126;-71
2023/04/07 04:46:42;;;;;;;12.48;11.02;;;;;;;;;;5070794;28;20501;-71
2023/04/07 04:49:08;;;;;;;14.68;12.07;;;;;;;;;;5058507;28;20048;-71
2023/04/07 04:51:35;;;;;;;15.68;12.98;;;;;;;;;;5059494;28;20040;-71
2023/04/07 04:54:02;;;;;;;15.98;13.10;;;;;;;;;;5085785;28;20119;-71
2023/04/07 04:56:28;;;;;;;14.88;12.43;;;;;;;;;;5080279;28;20456;-70
2023/04/07 04:58:54;;;;;;;17.38;13.07;;;;;;;;;;5076044;28;20044;-70
2023/04/07 05:01:20;;;;;;;18.10;13.75;;;;;;;;;;5087249;28;20044;-70
2023/04/07 05:03:46;;;;;;;16.08;12.90;;;;;;;;;;5057206;28;20115;-71
2023/04/07 05:06:13;;;;;;;16.88;13.55;;;;;;;;;;5078800;28;20664;-71
2023/04/07 05:08:39;;;;;;;17.35;13.55;;;;;;;;;;5088062;28;20059;-71
2023/04/07 05:11:05;;;;;;;14.52;12.10;;;;;;;;;;5091936;28;20136;-71
2023/04/07 05:13:31;;;;;;;14.82;11.63;;;;;;;;;;5090596;28;20143;-71
2023/04/07 05:15:57;;;;;;;13.25;11.45;;;;;;;;;;5073543;28;20180;-71
2023/04/07 05:18:23;;;;;;;12.23;10.20;;;;;;;;;;5068177;28;20036;-71
2023/04/07 05:20:49;;;;;;;13.63;11.48;;;;;;;;;;5092006;28;20040;-71
2023/04/07 05:23:15;;;;;;;13.73;11.30;;;;;;;;;;5079609;28;20101;-71
2023/04/07 05:25:41;;;;;;;14.50;10.93;;;;;;;;;;5085187;28;20564;-71
2023/04/07 05:28:07;;;;;;;14.45;12.55;;;;;;;;;;5079704;28;20127;-71
2023/04/07 05:30:34;;;;;;;12.93;10.32;;;;;;;;;;5078089;28;20044;-71
2023/04/07 05:33:00;;;;;;;14.55;12.10;;;;;;;;;;5078867;28;20124;-71
2023/04/07 05:35:26;;;;;;;14.52;11.55;;;;;;;;;;5088650;28;20051;-71
2023/04/07 05:37:52;;;;;;;14.68;11.45;;;;;;;;;;5063915;28;20044;-71
2023/04/07 05:40:18;;;;;;;15.18;12.07;;;;;;;;;;5083981;28;20036;-71
2023/04/07 05:42:44;;;;;;;12.80;10.65;;;;;;;;;;5069378;28;20124;-71
2023/04/07 05:45:10;;;;;;;15.13;12.48;;;;;;;;;;5076845;28;20472;-70
2023/04/07 05:47:36;;;;;;;13.80;11.68;;;;;;;;;;5064694;28;20498;-71
2023/04/07 05:50:02;;;;;;;17.85;13.43;;;;;;;;;;5080239;28;20044;-71
2023/04/07 05:52:29;;;;;;;16.85;13.02;;;;;;;;;;5074509;28;20043;-71
2023/04/07 05:54:55;;;;;;;13.15;11.00;;;;;;;;;;5074947;28;20140;-71
2023/04/07 05:57:21;;;;;;;13.43;9.65;;;;;;;;;;5075570;28;20112;-71
2023/04/07 05:59:47;;;;;;;;;;;;;;;;;;5083624;28;20067;-69
2023/04/07 06:02:13;;;;;;;14.30;10.60;;;;;;;;;;5073429;28;20628;-70
2023/04/07 06:04:39;;;;;;;15.55;13.52;;;;;;;;;;5067645;28;20139;-70
2023/04/07 06:07:06;;;;;;;16.02;12.40;;;;;;;;;;5071791;28;20048;-70
2023/04/07 06:09:32;;;;;;;14.68;12.77;;;;;;;;;;5071491;28;20040;-70
2023/04/07 06:12:00;;;;;;;16.33;13.48;;;;;;;;;;5083198;28;20499;-70
2023/04/07 06:14:26;;;;;;;18.35;13.38;;;;;;;;;;5074103;28;20049;-70
2023/04/07 06:16:52;;;;;;;16.02;13.18;;;;;;;;;;5053835;28;20044;-70
2023/04/07 06:19:18;;;;;;;16.20;13.05;;;;;;;;;;5085582;28;20046;-70
2023/04/07 06:21:44;;;;;;;17.15;13.27;;;;;;;;;;5082933;28;20048;-70
2023/04/07 06:24:10;;;;;;;16.42;13.25;;;;;;;;;;5081048;28;20044;-70
2023/04/07 06:26:36;;;;;;;16.15;13.50;;;;;;;;;;5089046;28;20093;-70
2023/04/07 06:29:02;;;;;;;17.38;13.43;;;;;;;;;;5055426;28;20093;-71
2023/04/07 06:31:28;;;;;;;15.90;12.75;;;;;;;;;;5062674;28;20054;-71
2023/04/07 06:33:54;;;;;;;14.45;11.05;;;;;;;;;;5065275;28;20048;-71
2023/04/07 06:36:22;;;;;;;11.52;10.13;;;;;;;;;;5069869;28;20425;-71
2023/04/07 06:38:48;;;;;;;14.10;11.20;;;;;;;;;;5075309;28;20044;-71
2023/04/07 06:41:16;;;;;;;14.25;10.95;;;;;;;;;;5077283;28;20048;-71
2023/04/07 06:43:50;;;;;;;15.88;11.23;;;;;;;;;;5062033;28;20552;-71
2023/04/07 06:46:16;;;;;;;13.57;11.27;;;;;;;;;;5053449;28;20120;-71
2023/04/07 06:48:42;;;;;;;12.63;10.77;;;;;;;;;;5084757;28;20395;-71
2023/04/07 06:51:08;;;;;;;12.48;10.80;;;;;;;;;;5081982;28;20663;-71
2023/04/07 06:53:34;;;;;;;12.82;10.52;;;;;;;;;;5076461;28;20039;-71
2023/04/07 06:56:03;;;;;;;14.02;11.52;;;;;;;;;;5085463;28;20047;-71
2023/04/07 06:58:30;;;;;;;12.93;10.90;;;;;;;;;;5078422;28;20040;-71
2023/04/07 07:00:56;;;;;;;12.95;10.95;;;;;;;;;;5061827;28;20048;-71
2023/04/07 07:03:22;;;;;;;13.30;10.60;;;;;;;;;;5074038;28;20033;-71
2023/04/07 07:05:48;;;;;;;12.43;10.30;;;;;;;;;;5078046;28;20040;-71
2023/04/07 07:08:14;;;;;;;12.27;10.65;;;;;;;;;;5071783;28;20082;-71
2023/04/07 07:10:40;;;;;;;11.75;10.05;;;;;;;;;;5080854;28;20063;-71
2023/04/07 07:13:06;;;;;;;12.82;11.13;;;;;;;;;;5079266;28;20047;-71
2023/04/07 07:15:32;;;;;;;11.80;10.15;;;;;;;;;;5081500;28;20044;-71
2023/04/07 07:17:58;;;;;;;13.32;10.82;;;;;;;;;;5081807;28;20040;-72
2023/04/07 07:20:25;;;;;;;14.10;11.20;;;;;;;;;;5089513;28;20056;-71
2023/04/07 07:22:51;;;;;;;14.38;11.82;;;;;;;;;;5079040;28;20084;-71
2023/04/07 07:25:17;;;;;;;13.23;11.20;;;;;;;;;;5071183;28;20114;-71
2023/04/07 07:27:43;;;;;;;12.38;10.50;;;;;;;;;;5089219;28;20440;-71
2023/04/07 07:30:09;;;;;;;10.63;8.68;;;;;;;;;;5085684;28;20045;-72
2023/04/07 07:32:35;;;;;;;13.40;11.45;;;;;;;;;;5057470;28;20292;-72
2023/04/07 07:35:01;;;;;;;14.02;11.27;;;;;;;;;;5059482;28;20048;-71
2023/04/07 07:37:27;;;;;;;14.93;11.52;;;;;;;;;;5077768;28;20555;-71
2023/04/07 07:39:55;;;;;;;12.52;9.98;;;;;;;;;;5080937;28;20048;-72
2023/04/07 07:42:21;;;;;;;12.00;9.48;;;;;;;;;;5078022;28;20044;-70
2023/04/07 07:44:47;;;;;;;12.55;10.30;;;;;;;;;;5075384;28;20040;-72
2023/04/07 07:47:13;;;;;;;11.55;9.63;;;;;;;;;;5081665;28;20090;-71
2023/04/07 07:49:40;;;;;;;12.07;9.98;;;;;;;;;;5060329;28;20086;-71
2023/04/07 07:52:06;;;;;;;9.32;8.30;;;;;;;;;;5078600;28;20058;-71
2023/04/07 07:54:32;;;;;;;10.65;8.68;;;;;;;;;;5079909;28;20043;-71
2023/04/07 07:56:58;;;;;;;12.45;9.30;;;;;;;;;;5077544;28;20044;-71
2023/04/07 07:59:25;;;;;;;9.73;7.88;;;;;;;;;;5078251;28;20051;-71
2023/04/07 08:01:51;;;;;;;10.88;8.73;;;;;;;;;;5072764;28;20430;-71
2023/04/07 08:04:17;;;;;;;11.73;9.30;;;;;;;;;;5068617;28;20059;-71
2023/04/07 08:06:43;;;;;;;12.43;9.57;;;;;;;;;;5078043;28;20032;-71
2023/04/07 08:09:09;;;;;;;10.60;8.88;;;;;;;;;;5075279;28;20476;-71
2023/04/07 08:11:35;;;;;;;9.45;8.27;;;;;;;;;;5059843;28;20052;-71
2023/04/07 08:14:01;;;;;;;;;;;;;;;;;;5088303;28;20060;-70
2023/04/07 08:16:28;;;;;;;10.93;8.73;;;;;;;;;;5079496;28;20347;-71
2023/04/07 08:18:54;;;;;;;8.85;7.03;;;;;;;;;;5083042;28;20036;-71
2023/04/07 08:21:20;;;;;;;8.38;7.43;;;;;;;;;;5083727;28;20242;-71
2023/04/07 08:23:46;;;;;;;9.77;8.20;;;;;;;;;;5083646;28;20040;-71
2023/04/07 08:26:12;;;;;;;9.77;8.77;;;;;;;;;;5086473;28;20036;-71
2023/04/07 08:28:38;;;;;;;10.32;8.50;;;;;;;;;;5077644;28;20122;-71
2023/04/07 08:31:04;;;;;;;9.30;8.02;;;;;;;;;;5079926;28;20055;-71
2023/04/07 08:33:30;;;;;;;10.55;9.30;;;;;;;;;;5070192;28;20076;-71
2023/04/07 08:35:56;;;;;;;10.82;8.32;;;;;;;;;;5072505;28;20048;-71
2023/04/07 08:38:22;;;;;;;9.63;7.97;;;;;;;;;;5062632;28;20053;-72
2023/04/07 08:40:54;;;;;;;9.95;8.65;;;;;;;;;;5066260;28;20082;-71
2023/04/07 08:43:21;;;;;;;8.52;7.45;;;;;;;;;;5059508;28;20080;-71
2023/04/07 08:45:49;;;;;;;9.48;8.02;;;;;;;;;;5070963;28;20423;-71
2023/04/07 08:48:18;;;;;;;10.10;7.78;;;;;;;;;;5082735;28;20048;-71
2023/04/07 08:50:45;;;;;;;7.78;6.97;;;;;;;;;;5083863;28;20363;-71
2023/04/07 08:53:13;;;;;;;7.63;6.82;;;;;;;;;;5078859;28;20040;-70
2023/04/07 08:55:40;;;;;;;9.23;7.35;;;;;;;;;;5056030;28;20047;-70
2023/04/07 08:58:11;;;;;;;10.20;8.32;;;;;;;;;;5080678;28;20090;-70
2023/04/07 09:00:37;;;;;;;9.35;8.35;;;;;;;;;;5079046;28;20055;-70
2023/04/07 09:03:03;;;;;;;11.18;9.15;;;;;;;;;;5062124;28;20048;-70
2023/04/07 09:05:30;;;;;;;7.97;7.18;;;;;;;;;;5079772;28;20480;-70
2023/04/07 09:07:56;;;;;;;;;;;;;;;;;;5080613;28;20043;-69
2023/04/07 09:10:22;;;;;;;15.73;12.02;;;;;;;;;;5056890;28;19924;-70
2023/04/07 09:12:48;;;;;;;12.20;10.93;;;;;;;;;;5080294;28;20052;-71
2023/04/07 09:15:14;;;;;;;;;;;;;;;;;;5067380;28;20044;-71
2023/04/07 09:17:40;;;;;;;13.32;11.55;;;;;;;;;;5061811;28;19926;-71
2023/04/07 09:20:07;;;;;;;12.35;11.02;;;;;;;;;;5063948;28;20063;-72
2023/04/07 09:22:37;;;;;;;14.27;12.18;;;;;;;;;;5075300;28;20063;-71
2023/04/07 09:25:31;;;;;;;13.45;11.13;;;;;;;;;;5073162;28;20055;-71
2023/04/07 09:28:01;;;;;;;11.55;9.50;;;;;;;;;;5070365;28;20087;-71
2023/04/07 09:30:28;;;;;;;13.88;11.90;;;;;;;;;;5074329;28;20044;-71
2023/04/07 09:32:55;;;;;;;14.82;12.70;;;;;;;;;;5061658;28;20032;-71
2023/04/07 09:35:22;;;;;;;14.48;11.70;;;;;;;;;;5076771;28;20070;-71
2023/04/07 09:38:02;;;;;;;11.45;10.25;;;;;;;;;;5082459;28;20483;-70
2023/04/07 09:40:28;;;;;;;14.20;10.95;;;;;;;;;;5083754;28;20115;-71
2023/04/07 09:42:54;;;;;;;12.98;11.43;;;;;;;;;;5072269;28;20041;-70
2023/04/07 09:45:27;;;;;;;13.57;10.57;;;;;;;;;;5075617;28;20072;-70
2023/04/07 09:47:54;;;;;;;11.43;9.45;;;;;;;;;;5078951;28;20400;-71
2023/04/07 09:50:34;;;;;;;13.60;11.32;;;;;;;;;;5072775;28;20344;-71
2023/04/07 09:53:01;;;;;;;12.20;10.13;;;;;;;;;;5085778;28;20051;-71
2023/04/07 09:55:27;;;;;;;15.00;10.73;;;;;;;;;;5083815;28;20185;-71
2023/04/07 09:57:54;;;;;;;11.73;9.55;;;;;;;;;;5070645;28;20546;-71
2023/04/07 10:00:21;;;;;;;12.50;9.93;;;;;;;;;;5083827;28;20487;-70
2023/04/07 10:02:48;;;;;;;;;;;;;;;;;;5078643;28;20106;-70
2023/04/07 10:05:14;;;;;;;10.60;9.10;;;;;;;;;;5087066;28;19946;-71
2023/04/07 10:07:40;;;;;;;10.50;9.32;;;;;;;;;;5067812;28;20036;-71
2023/04/07 10:10:07;;;;;;;10.13;8.95;;;;;;;;;;5060663;28;20122;-70
2023/04/07 10:12:42;;;;;;;9.45;7.78;;;;;;;;;;5087720;28;20055;-71
2023/04/07 10:15:12;;;;;;;8.75;7.70;;;;;;;;;;5080265;28;20068;-72
2023/04/07 10:17:39;;;;;;;7.90;7.10;;;;;;;;;;5074465;28;20067;-71
2023/04/07 10:20:08;;;;;;;7.72;6.90;;;;;;;;;;5071118;28;20044;-71
2023/04/07 10:22:35;;;;;;;7.78;6.97;;;;;;;;;;5073880;28;20060;-71
2023/04/07 10:25:09;;;;;;;8.68;7.32;;;;;;;;;;5079823;28;20466;-71
2023/04/07 10:27:51;;;;;;;7.50;6.43;;;;;;;;;;5063030;28;20410;-71
2023/04/07 10:30:28;;;;;;;5.95;5.35;;;;;;;;;;5076631;28;20044;-71
2023/04/07 10:32:54;;;;;;;6.15;5.50;;;;;;;;;;5071098;28;20115;-71
2023/04/07 10:35:20;;;;;;;;;;;;;;;;;;5078858;28;20041;-71
2023/04/07 10:38:05;;;;;;;6.75;5.85;;;;;;;;;;5080038;28;20015;-71
2023/04/07 10:40:31;;;;;;;7.18;6.47;;;;;;;;;;5067864;28;20047;-71
2023/04/07 10:42:58;;;;;;;6.28;5.45;;;;;;;;;;5072271;28;20387;-71
2023/04/07 10:45:43;;;;;;;7.85;6.70;;;;;;;;;;5074574;28;20056;-71
2023/04/07 10:48:10;;;;;;;7.00;6.00;;;;;;;;;;5056617;28;20048;-71
2023/04/07 10:50:37;;;;;;;5.97;5.30;;;;;;;;;;5076258;28;20040;-72
2023/04/07 10:53:10;;;;;;;6.35;5.68;;;;;;;;;;5052120;28;20407;-71
2023/04/07 10:55:38;;;;;;;8.68;6.68;;;;;;;;;;5053881;28;20060;-71
2023/04/07 10:58:16;;;;;;;9.88;8.45;;;;;;;;;;5073167;28;20069;-71
2023/04/07 11:01:05;;;;;;;8.80;7.85;;;;;;;;;;5062343;28;20035;-71
2023/04/07 11:03:33;;;;;;;8.45;6.78;;;;;;;;;;5058749;28;20855;-71
2023/04/07 11:06:03;;;;;;;10.40;8.15;;;;;;;;;;5058613;28;20377;-71
2023/04/07 11:08:49;;;;;;;8.18;7.38;;;;;;;;;;5053486;28;20472;-72
2023/04/07 11:11:16;;;;;;;7.10;6.10;;;;;;;;;;5057892;28;20088;-71
2023/04/07 11:13:43;;;;;;;8.40;6.60;;;;;;;;;;5066174;28;20104;-71
2023/04/07 11:16:10;;;;;;;8.45;7.55;;;;;;;;;;5072239;28;20040;-73
2023/04/07 11:18:36;;;;;;;6.80;6.10;;;;;;;;;;5071902;28;20152;-74
2023/04/07 11:21:04;;;;;;;;;;;;;;;;;;5059139;28;20043;-75
2023/04/07 11:23:37;;;;;;;6.32;5.55;;;;;;;;;;5062489;28;20367;-75
2023/04/07 11:26:03;;;;;;;6.47;5.63;;;;;;;;;;5055885;28;20048;-75
2023/04/07 11:28:30;;;;;;;7.30;5.97;;;;;;;;;;5044529;28;20036;-75
2023/04/07 11:30:57;;;;;;;6.38;5.50;;;;;;;;;;5054849;28;20059;-76
2023/04/07 11:33:27;;;;;;;5.68;4.85;;;;;;;;;;5057189;28;20040;-74
2023/04/07 11:35:58;;;;;;;5.22;4.43;;;;;;;;;;5076592;28;20043;-74
2023/04/07 11:38:26;;;;;;;6.80;6.10;;;;;;;;;;5078906;28;20051;-73
2023/04/07 11:40:52;;;;;;;6.88;5.65;;;;;;;;;;5058877;28;20070;-75
2023/04/07 11:43:19;;;;;;;5.60;5.00;;;;;;;;;;5078871;28;20132;-74
2023/04/07 11:45:46;;;;;;;5.10;4.57;;;;;;;;;;5071986;28;20036;-75
2023/04/07 11:48:12;;;;;;;;;;;;;;;;;;5072529;28;20057;-72
2023/04/07 11:50:41;;;;;;;5.38;4.85;;;;;;;;;;5079183;28;19916;-75
2023/04/07 11:53:08;;;;;;;4.93;4.30;;;;;;;;;;5072125;28;20119;-75
2023/04/07 11:55:35;;;;;;;4.03;3.63;;;;;;;;;;5072320;28;20051;-75
2023/04/07 11:58:10;;;;;;;4.50;4.10;;;;;;;;;;5077027;28;20093;-74
2023/04/07 12:01:03;;;;;;;5.77;5.20;;;;;;;;;;5094076;28;20047;-76
2023/04/07 12:03:30;;;;;;;5.10;4.32;;;;;;;;;;5071607;28;20298;-75
2023/04/07 12:05:56;;;;;;;4.57;3.65;;;;;;;;;;5075568;28;20139;-75
2023/04/07 12:08:35;;;;;;;4.15;3.60;;;;;;;;;;5073455;28;20115;-76
2023/04/07 12:11:05;;;;;;;4.68;4.03;;;;;;;;;;5059410;28;20056;-75
2023/04/07 12:13:31;;;;;;;5.20;4.70;;;;;;;;;;5075698;28;20051;-75
2023/04/07 12:16:00;;;;;;;6.07;4.82;;;;;;;;;;5080228;28;20391;-74
2023/04/07 12:18:27;;;;;;;5.20;4.70;;;;;;;;;;5081799;28;20047;-72
2023/04/07 12:20:53;;;;;;;4.72;4.22;;;;;;;;;;5071524;28;20036;-73
2023/04/07 12:23:19;;;;;;;;;;;;;;;;;;5076673;28;20055;-73
2023/04/07 12:25:45;;;;;;;4.88;4.38;;;;;;;;;;5075754;28;19916;-73
2023/04/07 12:28:11;;;;;;;4.65;4.15;;;;;;;;;;5077907;28;20046;-73
2023/04/07 12:30:37;;;;;;;7.05;5.65;;;;;;;;;;5081738;28;20180;-73
2023/04/07 12:33:03;;;;;;;6.65;5.93;;;;;;;;;;5071392;28;20462;-72
2023/04/07 12:35:30;;;;;;;5.07;4.57;;;;;;;;;;5073582;28;20040;-72
2023/04/07 12:37:55;;;;;;;;;;;;;;;;;;5073200;28;20043;-73
2023/04/07 12:40:22;;;;;;;5.60;5.10;;;;;;;;;;5073408;28;19920;-73
2023/04/07 12:42:48;;;;;;;6.05;5.28;;;;;;;;;;5068931;28;20551;-73
2023/04/07 12:45:14;;;;;;;5.10;3.83;;;;;;;;;;5073110;28;20055;-73
2023/04/07 12:47:41;;;;;;;5.22;4.72;;;;;;;;;;5073532;28;20040;-73
2023/04/07 12:50:07;;;;;;;5.32;4.20;;;;;;;;;;5075955;28;20040;-73
2023/04/07 12:52:33;;;;;;;;;;;;;;;;;;5075086;28;20045;-73
2023/04/07 12:54:59;;;;;;;5.43;4.93;;;;;;;;;;5074094;28;20304;-73
2023/04/07 12:57:26;;;;;;;4.72;4.15;;;;;;;;;;5074611;28;20036;-73
2023/04/07 12:59:53;;;;;;;5.30;4.80;;;;;;;;;;5079791;28;20406;-73
2023/04/07 13:02:19;;;;;;;5.78;4.97;;;;;;;;;;5078348;28;20144;-73
2023/04/07 13:04:46;;;;;;;5.38;4.88;;;;;;;;;;5075005;28;20115;-73
2023/04/07 13:07:12;;;;;;;4.63;4.22;;;;;;;;;;5072239;28;20446;-72
2023/04/07 13:09:42;;;;;;;4.40;3.97;;;;;;;;;;5082540;28;20051;-72
2023/04/07 13:12:09;;;;;;;5.35;4.78;;;;;;;;;;5077651;28;20107;-73
2023/04/07 13:14:36;;;;;;;4.95;4.45;;;;;;;;;;5061284;28;20072;-73
2023/04/07 13:17:02;;;;;;;4.50;4.10;;;;;;;;;;5077539;28;20529;-73
2023/04/07 13:19:29;;;;;;;5.05;4.55;;;;;;;;;;5077347;28;20040;-74
2023/04/07 13:21:55;;;;;;;4.28;3.85;;;;;;;;;;5074184;28;20037;-74
2023/04/07 13:24:21;;;;;;;;;;;;;;;;;;5064294;28;20052;-75
2023/04/07 13:26:48;;;;;;;4.40;4.00;;;;;;;;;;5074618;28;19984;-75
2023/04/07 13:29:14;;;;;;;;;;;;;;;;;;5063581;28;20203;-75
2023/04/07 13:31:40;;;;;;;4.90;4.40;;;;;;;;;;5062228;28;20031;-74
2023/04/07 13:34:06;;;;;;;5.43;4.93;;;;;;;;;;5066364;28;20102;-74
2023/04/07 13:36:32;;;;;;;4.22;3.83;;;;;;;;;;5078555;28;20029;-75
2023/04/07 13:38:58;;;;;;;;;;;;;;;;;;5073622;28;20152;-75
2023/04/07 13:41:25;;;;;;;3.88;3.10;;;;;;;;;;5077055;28;19927;-74
2023/04/07 13:43:51;;;;;;;4.25;3.05;;;;;;;;;;5065679;28;20128;-74
2023/04/07 13:46:17;;;;;;;;;;;;;;;;;;5076691;28;20067;-74
2023/04/07 13:48:44;;;;;;;4.93;4.43;;;;;;;;;;5075232;28;19967;-74
2023/04/07 13:51:10;;;;;;;4.07;3.63;;;;;;;;;;5080025;28;20044;-74
2023/04/07 13:53:36;;;;;;;;;;;;;;;;;;5080803;28;20091;-75
2023/04/07 13:56:04;;;;;;;4.75;4.00;;;;;;;;;;5078422;28;19920;-74
2023/04/07 13:58:31;;;;;;;4.32;3.40;;;;;;;;;;5061685;28;20032;-74
2023/04/07 14:00:57;;;;;;;5.75;4.50;;;;;;;;;;5076049;28;20041;-75
2023/04/07 14:03:23;;;;;;;5.03;4.30;;;;;;;;;;5076874;28;20033;-75
2023/04/07 14:05:49;;;;;;;;;;;;;;;;;;5063222;28;20074;-74
2023/04/07 14:08:17;;;;;;;4.45;3.92;;;;;;;;;;5077343;28;19971;-73
2023/04/07 14:10:44;;;;;;;3.60;3.25;;;;;;;;;;5084016;28;20520;-74
2023/04/07 14:13:10;;;;;;;4.97;4.47;;;;;;;;;;5074828;28;20116;-73
2023/04/07 14:15:36;;;;;;;;;;;;;;;;;;5083924;28;20449;-73
2023/04/07 14:18:02;;;;;;;5.45;4.30;;;;;;;;;;5087756;28;20069;-73
2023/04/07 14:20:28;;;;;;;3.53;3.22;;;;;;;;;;5076227;28;20037;-73
2023/04/07 14:22:55;;;;;;;4.15;3.75;;;;;;;;;;5075115;28;20047;-73
2023/04/07 14:25:21;;;;;;;4.07;3.67;;;;;;;;;;5075928;28;20047;-73
2023/04/07 14:27:47;;;;;;;;;;;;;;;;;;5055537;28;20154;-72
2023/04/07 14:30:13;;;;;;;4.32;3.92;;;;;;;;;;5073854;28;20034;-72
2023/04/07 14:32:39;;;;;;;4.30;3.50;;;;;;;;;;5055173;28;20123;-74
2023/04/07 14:35:05;;;;;;;;;;;;;;;;;;5075155;28;20048;-71
2023/04/07 14:37:31;;;;;;;3.97;3.45;;;;;;;;;;5072902;28;19920;-71
2023/04/07 14:39:58;;;;;;;3.28;2.90;;;;;;;;;;5051799;28;20411;-73